Йошкар-Ола-1

Карта отелей и гостиниц, располагающихся рядом с аэропортом Йошкар-Ола-1 :

Йошкар-Ола-1 Марий Эл 56° 34' 25.9212" N, 48° 9' 43.02" E
Код аэродрома ИКАО
HF8F
Код аэродрома RU
ХФ8Ф
Координаты
N56.57387° E048.16195°
Превышение над уровнем моря
151
Основная полоса
08/26
Курс магнитный
076,7/256,7
Длина основной ВПП
15
Ширина основной ВПП
15
Покрытие основной ВПП
Твёрдое
Освещение ВПП
Нет
Тип: 
Вертодром
Класс аэродрома: 
Принадлежность: 
МО
Статус: 
Действующий
Сайт: 
E-mail аэродрома: 
Страна: 
Россия
Регион: 
Марий Эл
Город: 
Дополнительная информация: 
Оператор: 14-я РД РВСН.

Найти трансфер

С помощью этой формы Вы можете найти трансфер из аэропорта Йошкар-Ола-1 в город, аэропорт или вокзал:

Карта места

Javascript is required to view this map.

Погода в аэропортах:

Авиационная погода в Ровно

Регион: 
Погода METAR: 
UKLR 170900Z 04002MPS 360V070 8000 -SN OVC005 M12/M14 Q1014 NOSIG
Время наблюдения
2021-01-17T09:00:00Z
Температура C
-12.0
Точка росы
-14.0
Направление ветра
40
Скорость ветра (узлы)
4
Метео видимость
4.97
Явления погоды
-SN
Условия полета
IFR
Аэропорт подробнее: 

Авиационная погода в Архангельске

Регион: 
Погода METAR: 
ULAA 170900Z 18002MPS 150V210 9000 -SN OVC009 M14/M16 Q1007 R08/490537 NOSIG RMK QFE754/1005
Время наблюдения
2021-01-17T09:00:00Z
Температура C
-14.0
Точка росы
-16.0
Направление ветра
180
Скорость ветра (узлы)
4
Метео видимость
5.59
Явления погоды
-SN
Условия полета
IFR
Аэропорт подробнее: 

Авиационная погода в Нальчике

Регион: 
Погода METAR: 
URMN 170900Z 10003MPS 0300 -FZDZ FZFG VV001 M01/M01 Q1004 R24/210250 NOSIG RMK QBB030 MT OBSC OBST OBSC QFE716
Время наблюдения
2021-01-17T09:00:00Z
Температура C
-1.0
Точка росы
-1.0
Направление ветра
100
Скорость ветра (узлы)
6
Метео видимость
0.19
Явления погоды
-FZDZ FZFG
Условия полета
LIFR
Аэропорт подробнее: 

Авиационная погода в Mărculeşti International Airport

Регион: 
Погода METAR: 
LUBM 131300Z 31004KT 9999 -SN OVC013 M00/M03 Q1004 R25/CLRD65
Время наблюдения
2021-01-13T13:00:00Z
Температура C
0.0
Точка росы
-3.0
Направление ветра
310
Скорость ветра (узлы)
4
Метео видимость
6.21
Явления погоды
-SN
Условия полета
MVFR